Stations météo

réclame
Mon MeteoGroup
Puebla De D. Rodrigo, Espagne (8271): Température de l'air & dewpoint: 18.05.2019 05:00:00 - 24.05.2019 05:00:00 (CEST)Puebla De D. Rodrigo, Espagne (8271): Vitesse du vent & gusts: 18.05.2019 05:00:00 - 24.05.2019 05:00:00 (CEST)Puebla De D. Rodrigo, Espagne (8271): Direction du vent: 18.05.2019 05:00:00 - 24.05.2019 05:00:00 (CEST)Puebla De D. Rodrigo, Espagne (8271): reduced air pressure: 18.05.2019 05:00:00 - 24.05.2019 05:00:00 (CEST)
Date & Time tt [°C] td [°C] ff [km/h] ff [knt] fx [km/h] fx [knt] dd ppp [hPa]
24.05.2019 05:00:00 - - - - - - - -
24.05.2019 04:00:00 16,7 9,2 0 0 1 0 N 1008,3
24.05.2019 03:00:00 17,7 9,0 0 0 14 7 N 1009,1
24.05.2019 02:00:00 18,7 7,7 0 0 0 0 N 1009,3
24.05.2019 01:00:00 20,0 7,0 0 0 9 5 WSW 1009,1
24.05.2019 00:00:00 20,7 6,2 0 0 3 2 N 1009,3
23.05.2019 23:00:00 21,5 5,0 0 0 9 5 N 1008,7
23.05.2019 22:00:00 22,7 6,1 0 0 1 1 SW 1008,1
23.05.2019 21:00:00 24,7 7,3 0 0 14 8 W 1007,6
23.05.2019 20:00:00 27,0 8,4 1 1 19 11 W 1007,2
23.05.2019 19:00:00 28,9 9,6 4 2 23 13 W 1006,9
23.05.2019 18:00:00 29,0 9,7 10 5 30 16 W 1007,2
23.05.2019 17:00:00 28,4 8,7 8 4 24 13 W 1007,8
23.05.2019 16:00:00 28,7 9,4 7 4 29 16 WSW 1008,4
23.05.2019 15:00:00 29,2 10,3 3 2 23 12 WNW 1009,0
23.05.2019 14:00:00 - - 4 2 25 13 W -
23.05.2019 13:00:00 28,5 11,6 2 1 17 9 NNW 1010,0
23.05.2019 12:00:00 27,4 12,6 0 0 6 4 NW 1010,5
23.05.2019 11:00:00 23,8 11,8 0 0 7 4 NE 1011,3
23.05.2019 10:00:00 20,6 10,0 0 0 5 3 ENE 1012,0
23.05.2019 09:00:00 15,4 8,4 0 0 1 0 E 1013,0
23.05.2019 08:00:00 12,2 7,6 0 0 0 0 N 1013,2
23.05.2019 07:00:00 11,5 6,4 0 0 0 0 N 1012,9
23.05.2019 06:00:00 12,5 6,7 0 0 0 0 N 1012,3
23.05.2019 05:00:00 13,2 6,2 0 0 0 0 N 1012,1
23.05.2019 04:00:00 14,5 6,4 0 0 2 1 N 1012,1
23.05.2019 03:00:00 15,9 6,4 0 0 1 0 N 1011,5
23.05.2019 02:00:00 16,5 6,5 0 0 7 4 WSW 1011,8
23.05.2019 01:00:00 18,1 5,9 0 0 0 0 N 1011,1
23.05.2019 00:00:00 20,3 6,2 0 0 7 4 N 1010,7
22.05.2019 23:00:00 21,1 6,2 4 2 8 4 WSW 1010,4
22.05.2019 22:00:00 22,5 5,8 3 1 9 5 WSW 1009,7
22.05.2019 21:00:00 25,2 6,4 0 0 11 6 W 1008,8
22.05.2019 20:00:00 26,7 6,7 3 1 17 9 W 1008,5
22.05.2019 19:00:00 28,7 8,4 3 2 22 12 WSW 1008,1
22.05.2019 18:00:00 28,0 7,8 3 1 22 12 S 1008,2
22.05.2019 17:00:00 29,6 9,2 2 1 15 8 W 1008,3
22.05.2019 16:00:00 28,5 8,3 8 5 28 15 SW 1008,7
22.05.2019 15:00:00 28,1 7,8 9 5 22 12 SW 1009,3
22.05.2019 14:00:00 28,9 9,0 5 3 15 8 E 1009,5
22.05.2019 13:00:00 28,1 8,4 1 0 14 8 SE 1010,0
22.05.2019 12:00:00 25,9 8,8 0 0 2 1 S 1010,4
22.05.2019 11:00:00 23,1 9,8 0 0 1 0 ENE 1010,6
22.05.2019 10:00:00 18,8 9,0 0 0 0 0 E 1011,5
22.05.2019 09:00:00 14,9 8,4 0 0 0 0 N 1012,0
22.05.2019 08:00:00 12,2 7,7 0 0 0 0 N 1012,3
22.05.2019 07:00:00 10,4 6,5 0 0 0 0 N 1012,0
22.05.2019 06:00:00 10,9 6,4 0 0 0 0 N 1011,9
22.05.2019 05:00:00 11,4 5,9 0 0 0 0 N 1011,7
22.05.2019 04:00:00 12,2 6,1 0 0 0 0 N 1011,3
22.05.2019 03:00:00 14,2 6,1 0 0 0 0 N 1010,8
22.05.2019 02:00:00 15,7 6,1 0 0 0 0 N 1010,8
22.05.2019 01:00:00 16,6 5,8 0 0 0 0 SW 1010,4
22.05.2019 00:00:00 18,3 6,1 0 0 0 0 N 1009,9
21.05.2019 23:00:00 19,2 5,9 0 0 3 2 N 1009,4
21.05.2019 22:00:00 20,6 6,1 0 0 6 4 WSW 1008,4
21.05.2019 21:00:00 22,7 6,4 3 1 18 10 WSW 1007,4
21.05.2019 20:00:00 24,1 6,8 1 1 15 8 W 1006,5
21.05.2019 19:00:00 26,0 7,6 4 2 19 10 SW 1006,1
21.05.2019 18:00:00 25,9 7,4 1 1 25 14 W 1006,3
21.05.2019 17:00:00 26,5 8,5 4 2 22 12 SW 1006,4
21.05.2019 16:00:00 26,6 9,0 4 2 22 12 WSW 1006,7
21.05.2019 15:00:00 25,7 8,3 2 1 18 10 S 1006,9
21.05.2019 14:00:00 24,7 8,7 2 1 21 12 SW 1007,4
21.05.2019 13:00:00 23,2 8,5 6 4 17 9 S 1008,1
21.05.2019 12:00:00 23,1 8,8 1 0 12 6 W 1008,2
21.05.2019 11:00:00 20,7 8,4 1 1 14 8 SW 1008,6
21.05.2019 10:00:00 20,4 8,7 0 0 0 0 N 1008,6
21.05.2019 09:00:00 17,0 7,3 0 0 0 0 N 1008,8
21.05.2019 08:00:00 15,0 6,2 0 0 0 0 N 1008,9
21.05.2019 07:00:00 13,5 5,9 0 0 0 0 N 1008,7
21.05.2019 06:00:00 14,4 6,2 0 0 0 0 N 1008,2
21.05.2019 05:00:00 15,6 5,8 0 0 3 1 N 1007,8
21.05.2019 04:00:00 14,7 5,1 0 0 0 0 N 1007,9
21.05.2019 03:00:00 15,6 5,1 0 0 0 0 N 1007,7
21.05.2019 02:00:00 16,9 4,8 0 0 2 1 N 1007,7
21.05.2019 01:00:00 17,9 4,8 0 0 4 2 WSW 1007,4
21.05.2019 00:00:00 - - 0 0 14 8 N -
20.05.2019 23:00:00 18,9 4,3 0 0 6 4 WSW 1006,9
20.05.2019 22:00:00 20,3 4,8 0 0 9 5 N 1006,1
20.05.2019 21:00:00 20,9 4,5 0 0 12 7 W 1005,8
20.05.2019 20:00:00 21,7 4,6 1 0 12 6 N 1005,4
20.05.2019 19:00:00 - - - - - - - -
20.05.2019 18:00:00 - - - - - - - -
20.05.2019 17:00:00 - - - - - - - -
20.05.2019 16:00:00 - - - - - - - -
20.05.2019 15:00:00 22,9 6,2 3 2 19 10 ESE 1006,0
20.05.2019 14:00:00 22,3 6,8 3 1 20 11 W 1006,5
20.05.2019 13:00:00 20,5 6,1 1 1 17 9 SW 1007,0
20.05.2019 12:00:00 20,3 6,5 2 1 13 7 S 1007,0
20.05.2019 11:00:00 18,7 7,4 0 0 7 4 N 1007,5
20.05.2019 10:00:00 15,2 5,6 0 0 0 0 N 1007,9
20.05.2019 09:00:00 11,9 4,8 0 0 0 0 N 1008,5
20.05.2019 08:00:00 8,5 3,9 0 0 0 0 N 1008,4
20.05.2019 07:00:00 6,2 2,3 0 0 0 0 N 1008,6
20.05.2019 06:00:00 6,4 1,9 0 0 0 0 N 1008,6
20.05.2019 05:00:00 8,1 2,7 0 0 0 0 N 1008,4
20.05.2019 04:00:00 9,8 1,9 0 0 0 0 N 1008,2
20.05.2019 03:00:00 11,0 1,3 0 0 0 0 NW 1008,1
20.05.2019 02:00:00 9,5 0,9 0 0 1 1 N 1008,6
20.05.2019 01:00:00 12,1 0,9 0 0 0 0 N 1008,1
20.05.2019 00:00:00 14,3 1,3 0 0 3 2 N 1007,7
19.05.2019 23:00:00 15,6 0,9 0 0 4 2 WSW 1007,0
19.05.2019 22:00:00 16,5 0,2 0 0 12 6 WSW 1006,3
19.05.2019 21:00:00 18,4 0,0 1 1 24 13 W 1005,4
19.05.2019 20:00:00 20,5 0,4 10 5 35 19 WSW 1004,7
19.05.2019 19:00:00 22,0 2,7 6 3 22 12 W 1004,3
19.05.2019 18:00:00 22,5 3,6 5 3 29 16 W 1004,5
19.05.2019 17:00:00 22,2 3,8 6 3 26 14 WSW 1004,9
19.05.2019 16:00:00 21,6 3,8 5 3 32 18 WSW 1005,4
19.05.2019 15:00:00 21,7 4,6 5 3 26 14 W 1005,6
19.05.2019 14:00:00 20,9 5,3 3 2 28 15 SW 1006,1
19.05.2019 13:00:00 20,4 5,6 3 2 18 10 W 1006,4
19.05.2019 12:00:00 18,3 5,1 3 2 14 7 W 1007,0
19.05.2019 11:00:00 15,9 5,0 1 1 19 10 WSW 1007,9
19.05.2019 10:00:00 15,6 6,2 0 0 13 7 NW 1007,8
19.05.2019 09:00:00 12,6 5,3 0 0 0 0 E 1008,1
19.05.2019 08:00:00 10,5 4,6 0 0 8 4 N 1008,4
19.05.2019 07:00:00 9,2 3,2 0 0 8 5 WSW 1008,1
19.05.2019 06:00:00 8,8 1,9 0 0 5 3 N 1008,0
19.05.2019 05:00:00 9,7 1,9 0 0 7 4 N 1007,8
19.05.2019 04:00:00 10,6 1,7 0 0 9 5 N 1007,7
19.05.2019 03:00:00 11,4 1,3 2 1 11 6 WSW 1007,6
19.05.2019 02:00:00 11,2 0,9 0 0 3 2 SW 1008,0
19.05.2019 01:00:00 12,2 0,6 0 0 7 4 WNW 1008,1
19.05.2019 00:00:00 12,5 0,0 0 0 12 7 WSW 1007,9
18.05.2019 23:00:00 14,3 0,2 2 1 10 5 WSW 1007,3
18.05.2019 22:00:00 15,2 0,2 2 1 18 10 WSW 1006,7
18.05.2019 21:00:00 16,9 0,9 5 3 25 13 W 1005,9
18.05.2019 20:00:00 18,2 1,7 2 1 26 14 W 1005,0
18.05.2019 19:00:00 18,1 1,1 4 2 35 19 W 1005,0
18.05.2019 18:00:00 18,5 1,9 6 3 25 13 SW 1004,6
18.05.2019 17:00:00 21,5 3,6 4 2 26 14 W 1004,0
18.05.2019 16:00:00 21,3 3,4 2 1 26 14 WNW 1004,5
18.05.2019 15:00:00 18,1 1,5 1 0 26 14 SE 1005,3
18.05.2019 14:00:00 19,9 3,6 6 3 20 11 WSW 1005,1
18.05.2019 13:00:00 18,2 4,6 3 1 22 12 NW 1006,0
18.05.2019 12:00:00 15,2 3,9 4 2 21 11 WSW 1006,5
18.05.2019 11:00:00 16,0 5,9 5 3 19 11 WSW 1005,9
18.05.2019 10:00:00 14,6 5,6 2 1 16 9 WSW 1006,2
18.05.2019 09:00:00 11,6 4,6 0 0 14 8 WSW 1006,6
18.05.2019 08:00:00 9,9 4,3 0 0 12 7 N 1006,7
18.05.2019 07:00:00 9,6 3,6 1 0 16 8 W 1006,4
18.05.2019 06:00:00 10,5 3,6 2 1 13 7 SW 1005,7
18.05.2019 05:00:00 10,9 3,4 0 0 12 6 WSW 1006,0

tt = Température de l'air
td = dewpoint
ff = Vitesse du vent
fx = gusts
dd = Direction du vent
ppp = reduced air pressure

stations d'obs. à proximité